sensor_id;sensor_type;location;lat;lon;timestamp;P1;durP1;ratioP1;P2;durP2;ratioP2
35969;SDS011;22448;51.298;6.430;2024-03-22T00:01:45;57.30;;;31.90;;
35969;SDS011;22448;51.298;6.430;2024-03-22T00:04:12;57.40;;;31.73;;
35969;SDS011;22448;51.298;6.430;2024-03-22T00:06:39;59.60;;;30.35;;
35969;SDS011;22448;51.298;6.430;2024-03-22T00:09:06;55.05;;;30.48;;
35969;SDS011;22448;51.298;6.430;2024-03-22T00:11:33;57.83;;;31.40;;
35969;SDS011;22448;51.298;6.430;2024-03-22T00:13:59;66.68;;;32.67;;
35969;SDS011;22448;51.298;6.430;2024-03-22T00:16:25;60.72;;;32.58;;
35969;SDS011;22448;51.298;6.430;2024-03-22T00:18:51;61.38;;;33.05;;
35969;SDS011;22448;51.298;6.430;2024-03-22T00:21:17;63.78;;;31.80;;
35969;SDS011;22448;51.298;6.430;2024-03-22T00:23:44;63.30;;;32.45;;
35969;SDS011;22448;51.298;6.430;2024-03-22T00:26:11;60.83;;;31.42;;
35969;SDS011;22448;51.298;6.430;2024-03-22T00:28:37;62.85;;;31.90;;
35969;SDS011;22448;51.298;6.430;2024-03-22T00:31:03;59.17;;;32.33;;
35969;SDS011;22448;51.298;6.430;2024-03-22T00:33:30;60.53;;;31.73;;
35969;SDS011;22448;51.298;6.430;2024-03-22T00:35:57;64.68;;;32.33;;
35969;SDS011;22448;51.298;6.430;2024-03-22T00:38:23;68.82;;;31.20;;
35969;SDS011;22448;51.298;6.430;2024-03-22T00:40:49;66.88;;;32.97;;
35969;SDS011;22448;51.298;6.430;2024-03-22T00:43:16;61.92;;;32.40;;
35969;SDS011;22448;51.298;6.430;2024-03-22T00:45:42;66.07;;;34.20;;
35969;SDS011;22448;51.298;6.430;2024-03-22T00:48:08;65.40;;;33.65;;
35969;SDS011;22448;51.298;6.430;2024-03-22T00:50:34;65.57;;;33.28;;
35969;SDS011;22448;51.298;6.430;2024-03-22T00:53:01;77.22;;;32.65;;
35969;SDS011;22448;51.298;6.430;2024-03-22T00:55:28;71.05;;;33.05;;
35969;SDS011;22448;51.298;6.430;2024-03-22T00:57:55;65.72;;;33.08;;
35969;SDS011;22448;51.298;6.430;2024-03-22T01:00:21;59.72;;;32.40;;
35969;SDS011;22448;51.298;6.430;2024-03-22T01:02:47;69.82;;;35.15;;
35969;SDS011;22448;51.298;6.430;2024-03-22T01:05:15;70.07;;;35.67;;
35969;SDS011;22448;51.298;6.430;2024-03-22T01:07:41;66.97;;;35.70;;
35969;SDS011;22448;51.298;6.430;2024-03-22T01:10:07;74.63;;;36.08;;
35969;SDS011;22448;51.298;6.430;2024-03-22T01:12:34;74.22;;;36.70;;
35969;SDS011;22448;51.298;6.430;2024-03-22T01:15:00;67.20;;;34.70;;
35969;SDS011;22448;51.298;6.430;2024-03-22T01:17:27;74.10;;;36.72;;
35969;SDS011;22448;51.298;6.430;2024-03-22T01:19:53;76.82;;;36.97;;
35969;SDS011;22448;51.298;6.430;2024-03-22T01:22:20;78.53;;;37.08;;
35969;SDS011;22448;51.298;6.430;2024-03-22T01:24:46;73.55;;;37.70;;
35969;SDS011;22448;51.298;6.430;2024-03-22T01:27:12;81.15;;;37.95;;
35969;SDS011;22448;51.298;6.430;2024-03-22T01:29:38;71.45;;;37.33;;
35969;SDS011;22448;51.298;6.430;2024-03-22T01:32:05;78.60;;;37.85;;
35969;SDS011;22448;51.298;6.430;2024-03-22T01:34:31;74.53;;;37.08;;
35969;SDS011;22448;51.298;6.430;2024-03-22T01:36:58;81.07;;;39.90;;
35969;SDS011;22448;51.298;6.430;2024-03-22T01:39:23;82.43;;;41.25;;
35969;SDS011;22448;51.298;6.430;2024-03-22T01:41:50;80.30;;;40.35;;
35969;SDS011;22448;51.298;6.430;2024-03-22T01:44:17;79.90;;;39.22;;
35969;SDS011;22448;51.298;6.430;2024-03-22T01:46:43;73.47;;;37.90;;
35969;SDS011;22448;51.298;6.430;2024-03-22T01:49:11;82.78;;;39.65;;
35969;SDS011;22448;51.298;6.430;2024-03-22T01:51:39;81.70;;;40.25;;
35969;SDS011;22448;51.298;6.430;2024-03-22T01:54:07;81.60;;;39.95;;
35969;SDS011;22448;51.298;6.430;2024-03-22T01:56:38;82.20;;;39.90;;
35969;SDS011;22448;51.298;6.430;2024-03-22T01:59:05;83.93;;;41.45;;
35969;SDS011;22448;51.298;6.430;2024-03-22T02:01:32;81.30;;;40.55;;
35969;SDS011;22448;51.298;6.430;2024-03-22T02:04:00;84.88;;;42.03;;
35969;SDS011;22448;51.298;6.430;2024-03-22T02:06:26;75.43;;;41.47;;
35969;SDS011;22448;51.298;6.430;2024-03-22T02:08:52;86.53;;;39.55;;
35969;SDS011;22448;51.298;6.430;2024-03-22T02:11:19;80.60;;;41.05;;
35969;SDS011;22448;51.298;6.430;2024-03-22T02:13:45;75.50;;;39.78;;
35969;SDS011;22448;51.298;6.430;2024-03-22T02:16:11;82.45;;;41.92;;
35969;SDS011;22448;51.298;6.430;2024-03-22T02:18:38;81.38;;;40.22;;
35969;SDS011;22448;51.298;6.430;2024-03-22T02:21:04;79.47;;;40.22;;
35969;SDS011;22448;51.298;6.430;2024-03-22T02:23:37;81.30;;;40.08;;
35969;SDS011;22448;51.298;6.430;2024-03-22T02:26:04;78.93;;;41.55;;
35969;SDS011;22448;51.298;6.430;2024-03-22T02:28:31;86.85;;;43.13;;
35969;SDS011;22448;51.298;6.430;2024-03-22T02:30:58;83.82;;;42.60;;
35969;SDS011;22448;51.298;6.430;2024-03-22T02:33:25;81.35;;;40.83;;
35969;SDS011;22448;51.298;6.430;2024-03-22T02:35:51;77.35;;;41.33;;
35969;SDS011;22448;51.298;6.430;2024-03-22T02:38:18;80.97;;;41.78;;
35969;SDS011;22448;51.298;6.430;2024-03-22T02:40:44;79.18;;;41.25;;
35969;SDS011;22448;51.298;6.430;2024-03-22T02:43:12;79.93;;;41.70;;
35969;SDS011;22448;51.298;6.430;2024-03-22T02:45:39;74.78;;;40.78;;
35969;SDS011;22448;51.298;6.430;2024-03-22T02:48:05;84.25;;;42.05;;
35969;SDS011;22448;51.298;6.430;2024-03-22T02:50:33;75.80;;;39.60;;
35969;SDS011;22448;51.298;6.430;2024-03-22T02:53:00;80.30;;;42.42;;
35969;SDS011;22448;51.298;6.430;2024-03-22T02:55:26;81.28;;;42.88;;
35969;SDS011;22448;51.298;6.430;2024-03-22T02:57:53;84.65;;;43.25;;
35969;SDS011;22448;51.298;6.430;2024-03-22T03:00:19;81.18;;;41.22;;
35969;SDS011;22448;51.298;6.430;2024-03-22T03:02:46;83.05;;;42.08;;
35969;SDS011;22448;51.298;6.430;2024-03-22T03:05:12;80.07;;;42.40;;
35969;SDS011;22448;51.298;6.430;2024-03-22T03:07:38;79.93;;;42.30;;
35969;SDS011;22448;51.298;6.430;2024-03-22T03:10:05;78.82;;;41.38;;
35969;SDS011;22448;51.298;6.430;2024-03-22T03:12:32;79.53;;;41.58;;
35969;SDS011;22448;51.298;6.430;2024-03-22T03:14:58;84.57;;;41.55;;
35969;SDS011;22448;51.298;6.430;2024-03-22T03:17:24;77.78;;;40.17;;
35969;SDS011;22448;51.298;6.430;2024-03-22T03:19:50;76.80;;;40.97;;
35969;SDS011;22448;51.298;6.430;2024-03-22T03:22:17;77.93;;;41.70;;
35969;SDS011;22448;51.298;6.430;2024-03-22T03:24:43;75.50;;;40.40;;
35969;SDS011;22448;51.298;6.430;2024-03-22T03:27:09;81.28;;;41.00;;
35969;SDS011;22448;51.298;6.430;2024-03-22T03:29:36;75.03;;;40.10;;
35969;SDS011;22448;51.298;6.430;2024-03-22T03:32:02;69.60;;;38.67;;
35969;SDS011;22448;51.298;6.430;2024-03-22T03:34:28;72.00;;;39.85;;
35969;SDS011;22448;51.298;6.430;2024-03-22T03:36:55;73.63;;;37.15;;
35969;SDS011;22448;51.298;6.430;2024-03-22T03:39:21;67.43;;;38.03;;
35969;SDS011;22448;51.298;6.430;2024-03-22T03:41:47;73.63;;;38.70;;
35969;SDS011;22448;51.298;6.430;2024-03-22T03:44:13;70.15;;;38.58;;
35969;SDS011;22448;51.298;6.430;2024-03-22T03:46:40;70.00;;;38.05;;
35969;SDS011;22448;51.298;6.430;2024-03-22T03:49:06;74.85;;;37.72;;
35969;SDS011;22448;51.298;6.430;2024-03-22T03:51:32;64.25;;;35.38;;
35969;SDS011;22448;51.298;6.430;2024-03-22T03:53:58;65.97;;;35.42;;
35969;SDS011;22448;51.298;6.430;2024-03-22T03:56:24;66.25;;;36.10;;
35969;SDS011;22448;51.298;6.430;2024-03-22T03:58:50;67.40;;;36.55;;
35969;SDS011;22448;51.298;6.430;2024-03-22T04:01:17;56.90;;;33.72;;
35969;SDS011;22448;51.298;6.430;2024-03-22T04:03:43;67.15;;;34.97;;
35969;SDS011;22448;51.298;6.430;2024-03-22T04:06:09;73.13;;;36.50;;
35969;SDS011;22448;51.298;6.430;2024-03-22T04:08:36;70.03;;;36.55;;
35969;SDS011;22448;51.298;6.430;2024-03-22T04:11:02;64.40;;;34.45;;
35969;SDS011;22448;51.298;6.430;2024-03-22T04:13:28;60.22;;;34.50;;
35969;SDS011;22448;51.298;6.430;2024-03-22T04:15:58;59.53;;;34.78;;
35969;SDS011;22448;51.298;6.430;2024-03-22T04:18:24;62.35;;;35.33;;
35969;SDS011;22448;51.298;6.430;2024-03-22T04:20:54;60.90;;;34.45;;
35969;SDS011;22448;51.298;6.430;2024-03-22T04:23:22;60.15;;;34.80;;
35969;SDS011;22448;51.298;6.430;2024-03-22T04:25:55;63.53;;;34.25;;
35969;SDS011;22448;51.298;6.430;2024-03-22T04:28:22;58.88;;;34.00;;
35969;SDS011;22448;51.298;6.430;2024-03-22T04:30:54;59.60;;;32.92;;
35969;SDS011;22448;51.298;6.430;2024-03-22T04:33:25;57.60;;;34.95;;
35969;SDS011;22448;51.298;6.430;2024-03-22T04:35:52;58.95;;;33.80;;
35969;SDS011;22448;51.298;6.430;2024-03-22T04:38:19;61.78;;;33.63;;
35969;SDS011;22448;51.298;6.430;2024-03-22T04:40:45;55.75;;;32.38;;
35969;SDS011;22448;51.298;6.430;2024-03-22T04:43:11;58.08;;;31.58;;
35969;SDS011;22448;51.298;6.430;2024-03-22T04:45:38;55.88;;;32.28;;
35969;SDS011;22448;51.298;6.430;2024-03-22T04:48:04;55.75;;;31.30;;
35969;SDS011;22448;51.298;6.430;2024-03-22T04:50:31;61.63;;;31.33;;
35969;SDS011;22448;51.298;6.430;2024-03-22T04:52:57;52.83;;;30.98;;
35969;SDS011;22448;51.298;6.430;2024-03-22T04:55:23;55.38;;;30.70;;
35969;SDS011;22448;51.298;6.430;2024-03-22T04:57:51;59.17;;;30.80;;
35969;SDS011;22448;51.298;6.430;2024-03-22T05:00:18;52.45;;;29.67;;
35969;SDS011;22448;51.298;6.430;2024-03-22T05:02:44;57.85;;;30.05;;
35969;SDS011;22448;51.298;6.430;2024-03-22T05:05:11;49.47;;;29.27;;
35969;SDS011;22448;51.298;6.430;2024-03-22T05:07:38;48.83;;;29.73;;
35969;SDS011;22448;51.298;6.430;2024-03-22T05:10:04;48.55;;;27.20;;
35969;SDS011;22448;51.298;6.430;2024-03-22T05:12:31;48.92;;;30.08;;
35969;SDS011;22448;51.298;6.430;2024-03-22T05:14:57;51.50;;;28.77;;
35969;SDS011;22448;51.298;6.430;2024-03-22T05:17:23;49.38;;;28.90;;
35969;SDS011;22448;51.298;6.430;2024-03-22T05:19:49;53.45;;;28.48;;
35969;SDS011;22448;51.298;6.430;2024-03-22T05:22:15;54.63;;;29.58;;
35969;SDS011;22448;51.298;6.430;2024-03-22T05:24:41;54.53;;;29.17;;
35969;SDS011;22448;51.298;6.430;2024-03-22T05:27:07;49.75;;;26.92;;
35969;SDS011;22448;51.298;6.430;2024-03-22T05:29:34;53.15;;;28.60;;
35969;SDS011;22448;51.298;6.430;2024-03-22T05:32:00;48.70;;;27.33;;
35969;SDS011;22448;51.298;6.430;2024-03-22T05:34:29;51.22;;;28.33;;
35969;SDS011;22448;51.298;6.430;2024-03-22T05:36:55;47.17;;;27.63;;
35969;SDS011;22448;51.298;6.430;2024-03-22T05:39:21;49.15;;;27.27;;
35969;SDS011;22448;51.298;6.430;2024-03-22T05:41:47;49.78;;;28.85;;
35969;SDS011;22448;51.298;6.430;2024-03-22T05:44:14;52.20;;;29.38;;
35969;SDS011;22448;51.298;6.430;2024-03-22T05:46:40;49.20;;;28.85;;
35969;SDS011;22448;51.298;6.430;2024-03-22T05:49:06;55.35;;;28.35;;
35969;SDS011;22448;51.298;6.430;2024-03-22T05:51:33;49.40;;;27.90;;
35969;SDS011;22448;51.298;6.430;2024-03-22T05:53:59;52.55;;;28.10;;
35969;SDS011;22448;51.298;6.430;2024-03-22T05:56:25;48.72;;;27.10;;
35969;SDS011;22448;51.298;6.430;2024-03-22T05:58:52;53.50;;;28.08;;
35969;SDS011;22448;51.298;6.430;2024-03-22T06:01:18;45.78;;;26.27;;
35969;SDS011;22448;51.298;6.430;2024-03-22T06:03:44;50.40;;;28.38;;
35969;SDS011;22448;51.298;6.430;2024-03-22T06:06:11;44.10;;;26.48;;
35969;SDS011;22448;51.298;6.430;2024-03-22T06:08:37;45.65;;;26.40;;
35969;SDS011;22448;51.298;6.430;2024-03-22T06:11:06;44.63;;;26.10;;
35969;SDS011;22448;51.298;6.430;2024-03-22T06:13:33;45.92;;;26.80;;
35969;SDS011;22448;51.298;6.430;2024-03-22T06:16:00;50.17;;;26.98;;
35969;SDS011;22448;51.298;6.430;2024-03-22T06:18:26;40.60;;;25.13;;
35969;SDS011;22448;51.298;6.430;2024-03-22T06:20:52;46.38;;;26.85;;
35969;SDS011;22448;51.298;6.430;2024-03-22T06:23:23;49.38;;;26.23;;
35969;SDS011;22448;51.298;6.430;2024-03-22T06:25:55;46.72;;;26.00;;
35969;SDS011;22448;51.298;6.430;2024-03-22T06:28:22;49.22;;;26.13;;
35969;SDS011;22448;51.298;6.430;2024-03-22T06:30:48;48.25;;;25.50;;
35969;SDS011;22448;51.298;6.430;2024-03-22T06:33:14;47.03;;;26.35;;
35969;SDS011;22448;51.298;6.430;2024-03-22T06:35:41;48.60;;;26.90;;
35969;SDS011;22448;51.298;6.430;2024-03-22T06:38:07;45.83;;;25.73;;
35969;SDS011;22448;51.298;6.430;2024-03-22T06:40:33;43.25;;;25.70;;
35969;SDS011;22448;51.298;6.430;2024-03-22T06:43:00;42.47;;;24.08;;
35969;SDS011;22448;51.298;6.430;2024-03-22T06:45:27;42.08;;;25.23;;
35969;SDS011;22448;51.298;6.430;2024-03-22T06:47:53;43.00;;;25.92;;
35969;SDS011;22448;51.298;6.430;2024-03-22T06:50:19;43.42;;;24.52;;
35969;SDS011;22448;51.298;6.430;2024-03-22T06:52:53;40.97;;;24.52;;
35969;SDS011;22448;51.298;6.430;2024-03-22T06:55:20;40.70;;;25.40;;
35969;SDS011;22448;51.298;6.430;2024-03-22T06:57:47;41.85;;;24.67;;
35969;SDS011;22448;51.298;6.430;2024-03-22T07:00:14;51.83;;;25.35;;
35969;SDS011;22448;51.298;6.430;2024-03-22T07:02:41;45.88;;;24.48;;
35969;SDS011;22448;51.298;6.430;2024-03-22T07:05:07;46.97;;;24.33;;
35969;SDS011;22448;51.298;6.430;2024-03-22T07:07:35;42.67;;;23.15;;
35969;SDS011;22448;51.298;6.430;2024-03-22T07:10:02;41.03;;;24.42;;
35969;SDS011;22448;51.298;6.430;2024-03-22T07:12:29;43.63;;;23.90;;
35969;SDS011;22448;51.298;6.430;2024-03-22T07:14:55;40.40;;;23.15;;
35969;SDS011;22448;51.298;6.430;2024-03-22T07:17:22;43.72;;;23.00;;
35969;SDS011;22448;51.298;6.430;2024-03-22T07:19:50;39.80;;;23.80;;
35969;SDS011;22448;51.298;6.430;2024-03-22T07:22:17;37.72;;;21.80;;
35969;SDS011;22448;51.298;6.430;2024-03-22T07:24:44;39.75;;;22.00;;
35969;SDS011;22448;51.298;6.430;2024-03-22T07:27:10;39.75;;;21.60;;
35969;SDS011;22448;51.298;6.430;2024-03-22T07:29:37;37.85;;;23.10;;
35969;SDS011;22448;51.298;6.430;2024-03-22T07:32:03;39.45;;;20.48;;
35969;SDS011;22448;51.298;6.430;2024-03-22T07:34:30;36.45;;;22.10;;
35969;SDS011;22448;51.298;6.430;2024-03-22T07:36:56;37.78;;;22.48;;
35969;SDS011;22448;51.298;6.430;2024-03-22T07:39:23;40.17;;;23.67;;
35969;SDS011;22448;51.298;6.430;2024-03-22T07:41:49;37.47;;;22.60;;
35969;SDS011;22448;51.298;6.430;2024-03-22T07:44:16;52.92;;;24.50;;
35969;SDS011;22448;51.298;6.430;2024-03-22T07:46:46;39.60;;;22.88;;
35969;SDS011;22448;51.298;6.430;2024-03-22T07:49:12;40.83;;;23.23;;
35969;SDS011;22448;51.298;6.430;2024-03-22T07:51:38;38.30;;;22.00;;
35969;SDS011;22448;51.298;6.430;2024-03-22T07:54:04;40.30;;;22.15;;
35969;SDS011;22448;51.298;6.430;2024-03-22T07:56:31;42.22;;;21.85;;
35969;SDS011;22448;51.298;6.430;2024-03-22T07:58:57;38.13;;;21.80;;
35969;SDS011;22448;51.298;6.430;2024-03-22T08:01:23;40.58;;;22.60;;
35969;SDS011;22448;51.298;6.430;2024-03-22T08:03:51;36.30;;;21.52;;
35969;SDS011;22448;51.298;6.430;2024-03-22T08:06:17;36.55;;;21.83;;
35969;SDS011;22448;51.298;6.430;2024-03-22T08:08:43;35.45;;;20.40;;
35969;SDS011;22448;51.298;6.430;2024-03-22T08:11:09;39.80;;;21.38;;
35969;SDS011;22448;51.298;6.430;2024-03-22T08:13:36;36.40;;;19.80;;
35969;SDS011;22448;51.298;6.430;2024-03-22T08:16:02;34.13;;;19.42;;
35969;SDS011;22448;51.298;6.430;2024-03-22T08:18:29;34.30;;;18.83;;
35969;SDS011;22448;51.298;6.430;2024-03-22T08:20:55;35.17;;;19.33;;
35969;SDS011;22448;51.298;6.430;2024-03-22T08:23:21;33.78;;;19.58;;
35969;SDS011;22448;51.298;6.430;2024-03-22T08:25:48;30.45;;;18.52;;
35969;SDS011;22448;51.298;6.430;2024-03-22T08:28:14;32.70;;;19.30;;
35969;SDS011;22448;51.298;6.430;2024-03-22T08:30:42;31.27;;;17.15;;
35969;SDS011;22448;51.298;6.430;2024-03-22T08:33:08;29.83;;;17.08;;
35969;SDS011;22448;51.298;6.430;2024-03-22T08:35:35;31.10;;;17.35;;
35969;SDS011;22448;51.298;6.430;2024-03-22T08:38:01;32.30;;;19.15;;
35969;SDS011;22448;51.298;6.430;2024-03-22T08:40:28;31.77;;;18.38;;
35969;SDS011;22448;51.298;6.430;2024-03-22T08:42:54;31.40;;;18.40;;
35969;SDS011;22448;51.298;6.430;2024-03-22T08:45:20;30.15;;;17.17;;
35969;SDS011;22448;51.298;6.430;2024-03-22T08:47:46;29.23;;;16.60;;
35969;SDS011;22448;51.298;6.430;2024-03-22T08:50:12;27.85;;;16.63;;
35969;SDS011;22448;51.298;6.430;2024-03-22T08:52:39;33.72;;;16.70;;
35969;SDS011;22448;51.298;6.430;2024-03-22T08:55:05;25.95;;;15.95;;
35969;SDS011;22448;51.298;6.430;2024-03-22T08:57:32;23.98;;;16.08;;
35969;SDS011;22448;51.298;6.430;2024-03-22T08:59:59;26.52;;;15.80;;
35969;SDS011;22448;51.298;6.430;2024-03-22T09:02:25;27.23;;;14.45;;
35969;SDS011;22448;51.298;6.430;2024-03-22T09:04:52;23.23;;;14.07;;
35969;SDS011;22448;51.298;6.430;2024-03-22T09:07:19;24.02;;;14.15;;
35969;SDS011;22448;51.298;6.430;2024-03-22T09:09:45;20.20;;;13.02;;
35969;SDS011;22448;51.298;6.430;2024-03-22T09:12:11;22.35;;;12.68;;
35969;SDS011;22448;51.298;6.430;2024-03-22T09:14:38;20.92;;;13.38;;
35969;SDS011;22448;51.298;6.430;2024-03-22T09:17:04;21.65;;;12.30;;
35969;SDS011;22448;51.298;6.430;2024-03-22T09:19:30;20.30;;;12.40;;
35969;SDS011;22448;51.298;6.430;2024-03-22T09:21:57;20.80;;;12.25;;
35969;SDS011;22448;51.298;6.430;2024-03-22T09:24:23;20.30;;;11.90;;
35969;SDS011;22448;51.298;6.430;2024-03-22T09:26:49;19.73;;;12.25;;
35969;SDS011;22448;51.298;6.430;2024-03-22T09:29:16;20.98;;;12.48;;
35969;SDS011;22448;51.298;6.430;2024-03-22T09:31:41;19.95;;;11.98;;
35969;SDS011;22448;51.298;6.430;2024-03-22T09:34:08;22.63;;;11.80;;
35969;SDS011;22448;51.298;6.430;2024-03-22T09:36:34;19.33;;;11.32;;
35969;SDS011;22448;51.298;6.430;2024-03-22T09:39:04;23.70;;;12.38;;
35969;SDS011;22448;51.298;6.430;2024-03-22T09:41:31;24.85;;;11.70;;
35969;SDS011;22448;51.298;6.430;2024-03-22T09:43:58;21.40;;;11.90;;
35969;SDS011;22448;51.298;6.430;2024-03-22T09:46:26;24.65;;;12.07;;
35969;SDS011;22448;51.298;6.430;2024-03-22T09:48:52;20.10;;;12.27;;
35969;SDS011;22448;51.298;6.430;2024-03-22T09:51:19;19.95;;;11.73;;
35969;SDS011;22448;51.298;6.430;2024-03-22T09:53:48;21.35;;;11.40;;
35969;SDS011;22448;51.298;6.430;2024-03-22T09:56:15;17.65;;;11.50;;
35969;SDS011;22448;51.298;6.430;2024-03-22T09:58:46;20.02;;;11.20;;
35969;SDS011;22448;51.298;6.430;2024-03-22T10:01:12;17.50;;;11.15;;
35969;SDS011;22448;51.298;6.430;2024-03-22T10:03:39;24.35;;;11.05;;
35969;SDS011;22448;51.298;6.430;2024-03-22T10:06:05;18.00;;;10.40;;
35969;SDS011;22448;51.298;6.430;2024-03-22T10:08:31;16.55;;;11.18;;
35969;SDS011;22448;51.298;6.430;2024-03-22T10:11:01;20.42;;;11.70;;
35969;SDS011;22448;51.298;6.430;2024-03-22T10:13:27;20.67;;;11.60;;
35969;SDS011;22448;51.298;6.430;2024-03-22T10:15:54;20.23;;;11.30;;
35969;SDS011;22448;51.298;6.430;2024-03-22T10:18:22;18.00;;;10.60;;
35969;SDS011;22448;51.298;6.430;2024-03-22T10:20:58;18.58;;;10.65;;
35969;SDS011;22448;51.298;6.430;2024-03-22T10:23:31;24.90;;;12.73;;
35969;SDS011;22448;51.298;6.430;2024-03-22T10:25:58;20.20;;;10.95;;
35969;SDS011;22448;51.298;6.430;2024-03-22T10:28:25;21.08;;;11.63;;
35969;SDS011;22448;51.298;6.430;2024-03-22T10:30:52;21.33;;;11.70;;
35969;SDS011;22448;51.298;6.430;2024-03-22T10:33:19;19.48;;;11.27;;
35969;SDS011;22448;51.298;6.430;2024-03-22T10:35:52;19.17;;;11.30;;
35969;SDS011;22448;51.298;6.430;2024-03-22T10:38:22;24.02;;;11.63;;
35969;SDS011;22448;51.298;6.430;2024-03-22T10:40:48;23.25;;;11.15;;
35969;SDS011;22448;51.298;6.430;2024-03-22T10:43:15;23.40;;;11.70;;
35969;SDS011;22448;51.298;6.430;2024-03-22T10:45:42;17.65;;;10.75;;
35969;SDS011;22448;51.298;6.430;2024-03-22T10:48:09;20.17;;;11.70;;
35969;SDS011;22448;51.298;6.430;2024-03-22T10:50:39;19.27;;;11.52;;
35969;SDS011;22448;51.298;6.430;2024-03-22T10:53:09;22.48;;;10.48;;
35969;SDS011;22448;51.298;6.430;2024-03-22T10:55:41;21.73;;;10.63;;
35969;SDS011;22448;51.298;6.430;2024-03-22T10:58:20;16.88;;;10.82;;
35969;SDS011;22448;51.298;6.430;2024-03-22T11:00:50;15.15;;;10.25;;
35969;SDS011;22448;51.298;6.430;2024-03-22T11:03:19;26.38;;;11.35;;
35969;SDS011;22448;51.298;6.430;2024-03-22T11:05:50;20.38;;;11.40;;
35969;SDS011;22448;51.298;6.430;2024-03-22T11:10:51;21.63;;;10.57;;
35969;SDS011;22448;51.298;6.430;2024-03-22T11:13:17;16.05;;;9.85;;
35969;SDS011;22448;51.298;6.430;2024-03-22T11:15:44;18.35;;;10.43;;
35969;SDS011;22448;51.298;6.430;2024-03-22T11:18:13;18.45;;;9.80;;
35969;SDS011;22448;51.298;6.430;2024-03-22T11:20:39;16.35;;;9.27;;
35969;SDS011;22448;51.298;6.430;2024-03-22T11:23:05;19.75;;;9.82;;
35969;SDS011;22448;51.298;6.430;2024-03-22T11:25:33;16.67;;;10.15;;
35969;SDS011;22448;51.298;6.430;2024-03-22T11:27:59;19.02;;;11.43;;
35969;SDS011;22448;51.298;6.430;2024-03-22T11:30:28;16.27;;;10.15;;
35969;SDS011;22448;51.298;6.430;2024-03-22T11:32:55;18.25;;;10.40;;
35969;SDS011;22448;51.298;6.430;2024-03-22T11:35:21;16.73;;;10.13;;
35969;SDS011;22448;51.298;6.430;2024-03-22T11:37:49;19.70;;;11.65;;
35969;SDS011;22448;51.298;6.430;2024-03-22T11:40:16;18.10;;;10.77;;
35969;SDS011;22448;51.298;6.430;2024-03-22T11:42:44;17.08;;;11.10;;
35969;SDS011;22448;51.298;6.430;2024-03-22T11:45:15;18.80;;;11.35;;
35969;SDS011;22448;51.298;6.430;2024-03-22T11:47:43;19.70;;;11.27;;
35969;SDS011;22448;51.298;6.430;2024-03-22T11:50:13;18.25;;;11.68;;
35969;SDS011;22448;51.298;6.430;2024-03-22T11:52:43;20.83;;;11.10;;
35969;SDS011;22448;51.298;6.430;2024-03-22T11:55:12;17.30;;;11.97;;
35969;SDS011;22448;51.298;6.430;2024-03-22T11:57:38;19.67;;;12.32;;
35969;SDS011;22448;51.298;6.430;2024-03-22T12:00:05;23.88;;;12.60;;
35969;SDS011;22448;51.298;6.430;2024-03-22T12:02:37;18.48;;;11.82;;
35969;SDS011;22448;51.298;6.430;2024-03-22T12:05:06;17.90;;;11.23;;
35969;SDS011;22448;51.298;6.430;2024-03-22T12:07:33;20.45;;;13.25;;
35969;SDS011;22448;51.298;6.430;2024-03-22T12:09:59;18.70;;;12.30;;
35969;SDS011;22448;51.298;6.430;2024-03-22T12:12:25;23.75;;;14.18;;
35969;SDS011;22448;51.298;6.430;2024-03-22T12:14:52;21.90;;;13.27;;
35969;SDS011;22448;51.298;6.430;2024-03-22T12:17:18;22.73;;;13.77;;
35969;SDS011;22448;51.298;6.430;2024-03-22T12:19:44;27.75;;;15.00;;
35969;SDS011;22448;51.298;6.430;2024-03-22T12:22:10;25.27;;;14.18;;
35969;SDS011;22448;51.298;6.430;2024-03-22T12:24:36;23.60;;;13.02;;
35969;SDS011;22448;51.298;6.430;2024-03-22T12:27:03;21.35;;;14.43;;
35969;SDS011;22448;51.298;6.430;2024-03-22T12:29:31;21.38;;;13.95;;
35969;SDS011;22448;51.298;6.430;2024-03-22T12:31:58;20.90;;;13.23;;
35969;SDS011;22448;51.298;6.430;2024-03-22T12:34:27;22.77;;;13.90;;
35969;SDS011;22448;51.298;6.430;2024-03-22T12:36:54;23.58;;;14.35;;
35969;SDS011;22448;51.298;6.430;2024-03-22T12:39:21;23.83;;;14.52;;
35969;SDS011;22448;51.298;6.430;2024-03-22T12:41:47;24.83;;;14.13;;
35969;SDS011;22448;51.298;6.430;2024-03-22T12:44:14;22.13;;;14.18;;
35969;SDS011;22448;51.298;6.430;2024-03-22T12:46:40;21.65;;;14.63;;
35969;SDS011;22448;51.298;6.430;2024-03-22T12:49:11;24.58;;;14.13;;
35969;SDS011;22448;51.298;6.430;2024-03-22T12:51:37;29.23;;;16.23;;
35969;SDS011;22448;51.298;6.430;2024-03-22T12:54:03;30.02;;;14.45;;
35969;SDS011;22448;51.298;6.430;2024-03-22T12:56:30;27.15;;;15.95;;
35969;SDS011;22448;51.298;6.430;2024-03-22T12:58:58;29.95;;;15.93;;
35969;SDS011;22448;51.298;6.430;2024-03-22T13:01:24;30.42;;;17.00;;
35969;SDS011;22448;51.298;6.430;2024-03-22T13:03:50;28.98;;;15.57;;
35969;SDS011;22448;51.298;6.430;2024-03-22T13:06:17;26.02;;;16.33;;
35969;SDS011;22448;51.298;6.430;2024-03-22T13:08:43;21.33;;;14.35;;
35969;SDS011;22448;51.298;6.430;2024-03-22T13:11:09;19.48;;;13.85;;
35969;SDS011;22448;51.298;6.430;2024-03-22T13:13:35;21.70;;;13.82;;
35969;SDS011;22448;51.298;6.430;2024-03-22T13:16:02;23.40;;;14.65;;
35969;SDS011;22448;51.298;6.430;2024-03-22T13:18:28;20.42;;;14.00;;
35969;SDS011;22448;51.298;6.430;2024-03-22T13:20:55;18.92;;;13.02;;
35969;SDS011;22448;51.298;6.430;2024-03-22T13:23:22;20.05;;;14.25;;
35969;SDS011;22448;51.298;6.430;2024-03-22T13:25:48;23.35;;;14.40;;
35969;SDS011;22448;51.298;6.430;2024-03-22T13:28:15;21.90;;;15.57;;
35969;SDS011;22448;51.298;6.430;2024-03-22T13:30:46;23.42;;;15.85;;
35969;SDS011;22448;51.298;6.430;2024-03-22T13:33:12;21.92;;;15.18;;
35969;SDS011;22448;51.298;6.430;2024-03-22T13:35:39;22.58;;;16.10;;
35969;SDS011;22448;51.298;6.430;2024-03-22T13:38:07;19.98;;;15.32;;
35969;SDS011;22448;51.298;6.430;2024-03-22T13:40:38;25.80;;;16.73;;
35969;SDS011;22448;51.298;6.430;2024-03-22T13:43:06;25.40;;;15.82;;
35969;SDS011;22448;51.298;6.430;2024-03-22T13:45:38;23.52;;;16.23;;
35969;SDS011;22448;51.298;6.430;2024-03-22T13:48:10;22.05;;;16.20;;
35969;SDS011;22448;51.298;6.430;2024-03-22T13:50:40;22.95;;;15.88;;
35969;SDS011;22448;51.298;6.430;2024-03-22T13:53:06;25.48;;;16.55;;
35969;SDS011;22448;51.298;6.430;2024-03-22T13:55:34;23.25;;;16.73;;
35969;SDS011;22448;51.298;6.430;2024-03-22T13:58:00;23.15;;;16.80;;
35969;SDS011;22448;51.298;6.430;2024-03-22T14:00:27;29.30;;;17.00;;
35969;SDS011;22448;51.298;6.430;2024-03-22T14:02:53;25.58;;;17.98;;
35969;SDS011;22448;51.298;6.430;2024-03-22T14:05:21;26.98;;;18.33;;
35969;SDS011;22448;51.298;6.430;2024-03-22T14:07:50;27.95;;;17.90;;
35969;SDS011;22448;51.298;6.430;2024-03-22T14:10:16;29.25;;;18.38;;
35969;SDS011;22448;51.298;6.430;2024-03-22T14:12:45;36.97;;;19.23;;
35969;SDS011;22448;51.298;6.430;2024-03-22T14:15:11;24.65;;;18.10;;
35969;SDS011;22448;51.298;6.430;2024-03-22T14:17:37;30.90;;;18.98;;
35969;SDS011;22448;51.298;6.430;2024-03-22T14:20:03;33.15;;;18.10;;
35969;SDS011;22448;51.298;6.430;2024-03-22T14:22:43;29.48;;;18.27;;